Time;durP1;ratioP1;P1;durP2;ratioP2;P2;SDS_P1;SDS_P2;PMS_P1;PMS_P2;Temp;Humidity;BMP_temperature;BMP_pressure;BME280_temperature;BME280_humidity;BME280_pressure;Samples;Min_cycle;Max_cycle;Signal;HPM_P1;HPM_P2
2022/04/21 00:02:07;;;;;;;8.07;4.97;;;4.60;79.80;;;;;;4977450;28;20185;-61
2022/04/21 00:04:32;;;;;;;5.20;4.70;;;4.60;80.20;;;;;;4992573;28;20267;-61
2022/04/21 00:06:58;;;;;;;6.30;5.30;;;4.50;80.00;;;;;;4984308;28;20258;-61
2022/04/21 00:09:24;;;;;;;6.27;5.07;;;4.50;79.80;;;;;;4970979;28;20231;-61
2022/04/21 00:11:49;;;;;;;6.30;5.23;;;4.50;80.20;;;;;;4954090;28;20200;-61
2022/04/21 00:14:15;;;;;;;5.00;4.50;;;4.50;80.20;;;;;;4960059;28;20291;-61
2022/04/21 00:16:41;;;;;;;6.93;4.97;;;4.40;80.00;;;;;;4953062;28;20192;-61
2022/04/21 00:19:06;;;;;;;6.30;5.70;;;4.40;80.20;;;;;;4958400;28;20196;-61
2022/04/21 00:23:26;;;;;;;5.43;4.93;;;4.40;80.10;;;;;;4986919;28;20218;-61
2022/04/21 00:24:18;;;;;;;4.40;3.97;;;4.40;80.20;;;;;;4998922;28;20239;-60
2022/04/21 00:26:44;;;;;;;5.53;4.80;;;4.30;80.70;;;;;;4980813;28;20497;-60
2022/04/21 00:29:09;;;;;;;6.77;5.10;;;4.30;80.70;;;;;;4997621;28;20207;-60
2022/04/21 00:31:35;;;;;;;5.93;5.33;;;4.30;80.60;;;;;;4981337;28;20189;-60
2022/04/21 00:34:01;;;;;;;5.93;5.07;;;4.30;80.50;;;;;;4997192;28;20185;-60
2022/04/21 00:36:27;;;;;;;4.70;4.30;;;4.30;80.60;;;;;;4980640;28;20448;-60
2022/04/21 00:38:53;;;;;;;5.57;4.43;;;4.20;80.60;;;;;;4989234;28;20184;-60
2022/04/21 00:41:18;;;;;;;6.73;4.57;;;4.20;80.90;;;;;;4980400;28;20182;-61
2022/04/21 00:43:44;;;;;;;6.07;4.73;;;4.20;80.80;;;;;;4979648;28;20215;-61
2022/04/21 00:46:19;;;;;;;5.30;4.80;;;4.20;80.60;;;;;;4996651;28;20194;-61
2022/04/21 00:48:46;;;;;;;7.50;5.40;;;4.20;80.90;;;;;;4997287;28;20179;-61
2022/04/21 00:51:12;;;;;;;6.63;4.93;;;4.10;80.50;;;;;;4980067;28;20485;-61
2022/04/21 00:53:39;;;;;;;8.40;4.93;;;4.10;80.70;;;;;;4996226;28;20917;-61
2022/04/21 00:56:06;;;;;;;6.57;5.27;;;4.10;80.60;;;;;;4996394;28;20186;-61
2022/04/21 00:58:35;;;;;;;6.87;5.00;;;4.00;80.90;;;;;;4996466;28;20432;-61
2022/04/21 01:01:01;;;;;;;5.40;4.43;;;4.00;81.50;;;;;;4980352;28;20445;-61
2022/04/21 01:03:27;;;;;;;6.53;4.67;;;3.90;81.80;;;;;;4980195;28;20446;-61
2022/04/21 01:05:53;;;;;;;8.53;4.87;;;3.90;82.10;;;;;;4979745;28;20446;-61
2022/04/21 01:08:19;;;;;;;5.43;4.93;;;3.90;81.90;;;;;;4979918;28;20417;-61
2022/04/21 01:10:47;;;;;;;6.53;5.30;;;3.90;81.90;;;;;;4978494;28;20204;-61
2022/04/21 01:13:13;;;;;;;5.90;4.83;;;3.90;81.50;;;;;;4980036;28;20192;-61
2022/04/21 01:15:40;;;;;;;5.80;4.63;;;3.80;80.80;;;;;;4980603;28;20418;-61
2022/04/21 01:18:07;;;;;;;5.27;4.77;;;3.80;81.50;;;;;;4996038;28;20469;-61
2022/04/21 01:20:33;;;;;;;4.83;4.43;;;3.80;81.80;;;;;;4979612;28;20433;-61
2022/04/21 01:22:59;;;;;;;4.93;4.53;;;3.80;82.00;;;;;;4995808;28;20414;-61
2022/04/21 01:25:25;;;;;;;6.73;4.33;;;3.80;81.90;;;;;;4979393;28;20492;-61
2022/04/21 01:27:54;;;;;;;6.10;4.13;;;3.70;81.60;;;;;;4980016;28;20242;-61
2022/04/21 01:30:19;;;;;;;6.03;4.97;;;3.70;81.90;;;;;;4995243;28;20305;-61
2022/04/21 01:32:48;;;;;;;5.27;4.63;;;3.70;81.60;;;;;;4979730;28;20465;-61
2022/04/21 01:35:14;;;;;;;4.97;4.47;;;3.70;81.70;;;;;;4978854;28;20191;-61
2022/04/21 01:43:10;;;;;;;6.57;4.77;;;3.70;82.30;;;;;;4995475;28;20445;-60
2022/04/21 01:45:36;;;;;;;6.27;5.07;;;3.60;81.90;;;;;;4979406;28;20430;-60
2022/04/21 01:48:02;;;;;;;7.87;5.20;;;3.60;82.10;;;;;;4979211;28;20453;-59
2022/04/21 01:50:29;;;;;;;5.10;4.57;;;3.60;82.10;;;;;;4978749;28;20481;-60
2022/04/21 01:52:57;;;;;;;5.23;4.50;;;3.60;82.00;;;;;;4995926;28;20187;-60
2022/04/21 01:55:24;;;;;;;5.20;4.70;;;3.60;81.80;;;;;;4995576;28;20410;-60
2022/04/21 01:57:50;;;;;;;5.43;4.37;;;3.60;82.00;;;;;;4995190;28;20430;-59
2022/04/21 02:00:16;;;;;;;5.23;4.53;;;3.60;82.10;;;;;;4978857;28;20687;-59
2022/04/21 02:02:42;;;;;;;5.17;4.60;;;3.60;81.90;;;;;;4979354;28;20279;-59
2022/04/21 02:05:08;;;;;;;5.33;4.67;;;3.60;82.20;;;;;;4978834;28;20470;-59
2022/04/21 02:07:36;;;;;;;5.70;5.00;;;3.60;82.50;;;;;;4979007;28;20191;-59
2022/04/21 02:10:05;;;;;;;6.07;5.33;;;3.60;82.70;;;;;;4994847;28;20208;-59
2022/04/21 02:12:31;;;;;;;5.83;4.87;;;3.60;82.80;;;;;;4978948;28;20418;-59
2022/04/21 02:14:57;;;;;;;5.60;4.97;;;3.60;83.30;;;;;;4994705;28;20421;-59
2022/04/21 02:17:25;;;;;;;5.40;4.90;;;3.60;83.10;;;;;;4978459;28;20187;-59
2022/04/21 02:19:51;;;;;;;5.77;4.37;;;3.50;83.10;;;;;;4978494;28;20737;-59
2022/04/21 02:22:17;;;;;;;5.73;5.23;;;3.50;83.10;;;;;;4971317;28;20433;-60
2022/04/21 02:24:42;;;;;;;5.57;4.87;;;3.40;83.00;;;;;;4997654;28;20338;-60
2022/04/21 02:27:08;;;;;;;6.23;5.47;;;3.30;82.90;;;;;;4946911;28;20193;-60
2022/04/21 02:29:34;;;;;;;6.80;5.43;;;3.30;83.00;;;;;;4974984;28;20216;-60
2022/04/21 02:32:01;;;;;;;5.30;4.27;;;3.30;83.40;;;;;;4975514;28;20224;-60
2022/04/21 02:34:29;;;;;;;6.70;5.10;;;3.30;83.30;;;;;;4959127;28;20189;-60
2022/04/21 02:36:55;;;;;;;7.13;6.00;;;3.30;83.20;;;;;;4975314;28;20430;-60
2022/04/21 02:39:20;;;;;;;8.13;4.90;;;3.40;83.70;;;;;;4960821;28;20419;-60
2022/04/21 02:41:46;;;;;;;6.77;4.90;;;3.30;83.50;;;;;;4978468;28;20421;-61
2022/04/21 02:44:12;;;;;;;8.17;6.20;;;3.40;83.20;;;;;;4968404;28;20189;-61
2022/04/21 02:46:38;;;;;;;6.50;5.90;;;3.40;83.10;;;;;;4970266;28;20324;-61
2022/04/21 02:49:04;;;;;;;6.80;5.03;;;3.30;82.80;;;;;;4970341;28;20280;-61
2022/04/21 02:51:30;;;;;;;6.83;5.50;;;3.30;82.70;;;;;;4976249;28;20442;-61
2022/04/21 02:59:43;;;;;;;6.57;5.17;;;3.30;83.00;;;;;;4924273;29;20417;-61
2022/04/21 03:02:09;;;;;;;8.40;5.37;;;3.30;82.90;;;;;;4961850;28;20532;-61
2022/04/21 03:04:35;;;;;;;9.23;5.40;;;3.30;82.90;;;;;;4978173;28;20192;-61
2022/04/21 03:07:00;;;;;;;5.70;5.10;;;3.30;83.20;;;;;;4977753;28;20286;-59
2022/04/21 03:09:26;;;;;;;7.03;5.40;;;3.30;83.10;;;;;;4977428;28;20303;-59
2022/04/21 03:11:52;;;;;;;8.00;4.70;;;3.30;83.10;;;;;;4971298;28;20196;-59
2022/04/21 03:14:19;;;;;;;5.63;4.77;;;3.30;83.00;;;;;;4960686;28;20207;-59
2022/04/21 03:16:45;;;;;;;6.87;4.83;;;3.30;83.00;;;;;;4975195;28;20206;-59
2022/04/21 03:19:11;;;;;;;5.43;4.93;;;3.30;83.40;;;;;;4995036;28;20437;-59
2022/04/21 03:24:20;;;;;;;5.00;4.50;;;3.30;83.40;;;;;;4975423;28;20528;-60
2022/04/21 03:26:51;;;;;;;6.70;5.80;;;3.30;83.30;;;;;;4971533;28;20414;-59
2022/04/21 03:29:17;;;;;;;6.40;5.40;;;3.30;83.10;;;;;;4987701;28;20239;-60
2022/04/21 03:31:43;;;;;;;6.43;5.50;;;3.20;83.10;;;;;;4960330;28;20466;-60
2022/04/21 03:34:14;;;;;;;6.53;5.83;;;3.20;83.00;;;;;;4985316;28;20427;-59
2022/04/21 03:36:50;;;;;;;6.30;5.27;;;3.20;83.40;;;;;;4994983;28;20418;-59
2022/04/21 03:39:20;;;;;;;6.60;5.40;;;3.00;83.40;;;;;;4964334;28;20431;-60
2022/04/21 03:41:46;;;;;;;7.00;5.37;;;3.00;83.10;;;;;;4974070;28;20426;-59
2022/04/21 03:44:12;;;;;;;5.30;4.80;;;3.00;83.50;;;;;;4984656;28;20429;-59
2022/04/21 03:46:38;;;;;;;8.43;5.00;;;3.00;83.40;;;;;;4980676;28;20431;-50
2022/04/21 03:49:07;;;;;;;5.20;4.70;;;3.00;83.30;;;;;;4963003;28;20200;-48
2022/04/21 03:51:34;;;;;;;5.77;5.27;;;3.00;83.60;;;;;;4972232;28;20429;-49
2022/04/21 03:53:59;;;;;;;7.27;5.30;;;3.00;83.80;;;;;;4947237;28;20419;-52
2022/04/21 03:56:27;;;;;;;6.13;4.23;;;3.00;83.70;;;;;;4966513;28;20568;-49
2022/04/21 03:58:53;;;;;;;5.70;5.20;;;3.00;83.80;;;;;;4975825;28;20185;-51
2022/04/21 04:01:19;;;;;;;6.10;5.27;;;2.90;83.60;;;;;;4978384;28;20420;-52
2022/04/21 04:03:45;;;;;;;6.33;5.60;;;2.80;83.60;;;;;;4976400;28;20434;-50
2022/04/21 04:11:41;;;;;;;6.60;5.90;;;2.90;83.80;;;;;;4977967;28;20426;-50
2022/04/21 04:14:07;;;;;;;6.60;5.13;;;2.90;84.00;;;;;;4963727;28;20427;-49
2022/04/21 04:16:36;;;;;;;6.80;5.73;;;2.90;84.00;;;;;;4963345;28;20438;-51
2022/04/21 04:19:05;;;;;;;7.00;6.30;;;2.90;84.30;;;;;;4965476;28;20199;-51
2022/04/21 04:21:31;;;;;;;7.60;4.90;;;2.90;84.20;;;;;;4970675;28;20435;-50
2022/04/21 04:23:57;;;;;;;9.50;7.23;;;3.00;84.40;;;;;;4980703;28;20467;-51
2022/04/21 04:26:23;;;;;;;13.87;7.00;;;3.00;84.40;;;;;;4974653;28;20465;-56
2022/04/21 04:28:49;;;;;;;8.30;5.90;;;3.00;84.30;;;;;;4963919;28;20426;-53
2022/04/21 04:31:15;;;;;;;7.93;5.70;;;3.00;84.10;;;;;;4977670;28;20212;-54
2022/04/21 04:33:41;;;;;;;7.20;6.30;;;3.00;84.20;;;;;;4957298;28;20192;-57
2022/04/21 04:36:09;;;;;;;8.27;6.13;;;3.00;83.90;;;;;;4974365;28;20426;-55
2022/04/21 04:38:35;;;;;;;9.03;5.67;;;2.90;84.20;;;;;;4967748;28;20257;-56
2022/04/21 04:42:16;;;;;;;7.13;5.40;;;2.80;83.90;;;;;;4958696;28;20525;-57
2022/04/21 04:43:46;;;;;;;7.83;5.80;;;2.80;84.30;;;;;;4992566;28;20236;-57
2022/04/21 04:48:56;;;;;;;7.93;5.37;;;2.80;84.40;;;;;;5000748;28;20222;-55
2022/04/21 04:51:22;;;;;;;6.60;5.23;;;2.80;84.60;;;;;;4982029;28;20492;-56
2022/04/21 04:53:48;;;;;;;9.37;5.67;;;2.80;84.40;;;;;;4981532;28;20186;-54
2022/04/21 04:56:14;;;;;;;7.47;5.87;;;2.80;85.00;;;;;;4977948;28;20184;-57
2022/04/21 04:58:40;;;;;;;10.70;6.20;;;2.90;84.80;;;;;;4976777;28;20194;-57
2022/04/21 05:01:06;;;;;;;8.30;6.00;;;2.90;85.10;;;;;;4977658;28;20436;-59
2022/04/21 05:03:32;;;;;;;7.50;6.23;;;2.90;85.20;;;;;;4978236;28;20417;-59
2022/04/21 05:05:58;;;;;;;11.13;6.63;;;2.90;84.80;;;;;;4979239;28;20436;-59
2022/04/21 05:08:23;;;;;;;7.60;6.37;;;3.00;85.10;;;;;;4997811;28;20204;-60
2022/04/21 05:10:53;;;;;;;7.23;5.03;;;3.00;85.00;;;;;;4992517;28;20457;-53
2022/04/21 05:13:19;;;;;;;8.13;6.47;;;3.00;84.90;;;;;;4966632;28;20189;-58
2022/04/21 05:15:44;;;;;;;8.03;5.87;;;3.10;85.10;;;;;;4970088;28;20426;-58
2022/04/21 05:18:11;;;;;;;7.03;5.50;;;3.10;84.90;;;;;;4993322;28;20274;-54
2022/04/21 05:20:37;;;;;;;6.87;5.70;;;3.10;84.80;;;;;;5008967;28;20180;-57
2022/04/21 05:23:05;;;;;;;9.93;5.43;;;3.30;84.90;;;;;;4976874;28;20464;-58
2022/04/21 05:25:33;;;;;;;8.93;5.80;;;3.30;84.70;;;;;;4989187;28;20480;-57
2022/04/21 05:27:59;;;;;;;8.30;6.07;;;3.30;84.70;;;;;;4996506;28;20433;-54
2022/04/21 05:33:15;;;;;;;7.33;5.63;;;3.30;84.90;;;;;;5012335;28;20443;-53
2022/04/21 05:35:41;;;;;;;10.73;6.50;;;3.40;84.80;;;;;;5001513;28;20431;-56
2022/04/21 05:38:07;;;;;;;8.53;6.70;;;3.50;84.70;;;;;;4961341;28;20419;-55
2022/04/21 05:40:33;;;;;;;9.63;7.43;;;3.50;84.80;;;;;;4965734;28;20465;-58
2022/04/21 05:43:04;;;;;;;7.60;6.77;;;3.50;84.30;;;;;;4997194;28;20421;-57
2022/04/21 05:45:30;;;;;;;9.47;6.43;;;3.60;84.30;;;;;;5009386;28;20465;-58
2022/04/21 05:47:57;;;;;;;8.37;6.37;;;3.70;84.30;;;;;;4976260;28;20453;-58
2022/04/21 05:50:25;;;;;;;9.40;5.90;;;3.70;84.40;;;;;;4969747;28;20262;-54
2022/04/21 05:52:52;;;;;;;10.17;7.23;;;3.80;84.40;;;;;;4975324;28;20440;-53
2022/04/21 05:55:18;;;;;;;11.13;6.73;;;3.80;84.40;;;;;;4999665;28;20441;-56
2022/04/21 05:57:44;;;;;;;8.13;7.07;;;3.90;84.10;;;;;;4976161;28;20422;-56
2022/04/21 06:00:11;;;;;;;10.00;7.60;;;3.90;84.20;;;;;;4976584;28;20215;-55
2022/04/21 06:02:37;;;;;;;10.63;6.63;;;3.90;84.10;;;;;;4984122;28;20195;-55
2022/04/21 06:05:06;;;;;;;12.33;7.63;;;4.00;84.10;;;;;;4992192;28;20497;-54
2022/04/21 06:07:32;;;;;;;8.90;7.03;;;4.00;83.40;;;;;;4992410;28;20530;-54
2022/04/21 06:09:57;;;;;;;10.23;6.87;;;4.10;83.40;;;;;;4992512;28;20475;-56
2022/04/21 06:12:25;;;;;;;8.67;6.63;;;4.20;83.60;;;;;;5000946;28;20215;-54
2022/04/21 06:14:51;;;;;;;8.33;6.03;;;4.20;83.60;;;;;;4980555;28;20250;-54
2022/04/21 06:17:17;;;;;;;8.00;6.30;;;4.30;83.00;;;;;;4993217;28;20433;-54
2022/04/21 06:19:43;;;;;;;7.53;6.57;;;4.30;83.10;;;;;;4960090;28;20418;-53
2022/04/21 06:22:08;;;;;;;7.20;6.27;;;4.40;82.90;;;;;;4959622;28;20193;-54
2022/04/21 06:24:35;;;;;;;8.23;6.50;;;4.50;82.60;;;;;;4975782;28;20236;-56
2022/04/21 06:27:04;;;;;;;7.23;6.20;;;4.50;82.30;;;;;;4982737;28;20238;-55
2022/04/21 06:29:30;;;;;;;6.83;5.57;;;4.60;82.30;;;;;;4956103;28;20475;-55
2022/04/21 06:31:56;;;;;;;6.90;6.20;;;4.70;82.20;;;;;;4985934;28;20445;-55
2022/04/21 06:34:22;;;;;;;6.47;5.80;;;4.70;82.10;;;;;;4977326;28;20429;-53
2022/04/21 06:36:48;;;;;;;9.40;6.90;;;4.80;81.80;;;;;;4976572;28;20275;-54
2022/04/21 06:39:14;;;;;;;9.27;7.10;;;4.80;81.80;;;;;;4976827;28;20425;-57
2022/04/21 06:41:40;;;;;;;10.83;7.23;;;4.80;81.50;;;;;;4991802;28;20422;-54
2022/04/21 06:49:35;;;;;;;10.53;6.90;;;5.10;81.40;;;;;;4982494;28;20565;-54
2022/04/21 06:52:01;;;;;;;8.33;7.00;;;5.20;81.50;;;;;;4974517;28;20527;-56
2022/04/21 06:54:26;;;;;;;7.93;6.50;;;5.20;81.60;;;;;;4960710;28;20268;-57
2022/04/21 06:56:53;;;;;;;11.67;7.37;;;5.30;81.60;;;;;;4960897;28;20176;-56
2022/04/21 06:59:18;;;;;;;9.93;6.53;;;5.40;80.30;;;;;;4960925;28;20184;-56
2022/04/21 07:01:48;;;;;;;8.57;6.60;;;5.40;80.90;;;;;;4993083;28;20535;-54
2022/04/21 07:04:14;;;;;;;8.87;6.47;;;5.50;80.90;;;;;;4993553;28;20215;-55
2022/04/21 07:06:40;;;;;;;7.77;6.37;;;5.60;80.80;;;;;;4976627;28;20488;-55
2022/04/21 07:09:06;;;;;;;7.70;6.37;;;5.70;80.50;;;;;;4991446;28;20442;-56
2022/04/21 07:11:32;;;;;;;9.10;7.23;;;5.80;79.90;;;;;;4976497;28;20290;-57
2022/04/21 07:13:58;;;;;;;8.60;7.50;;;5.90;78.10;;;;;;4978784;28;20184;-57
2022/04/21 07:16:23;;;;;;;11.13;7.07;;;6.10;77.40;;;;;;4994497;28;20172;-53
2022/04/21 07:18:49;;;;;;;8.00;6.47;;;6.20;77.10;;;;;;4967684;28;20243;-53
2022/04/21 07:21:15;;;;;;;9.07;6.77;;;6.30;75.40;;;;;;4989725;28;20196;-56
2022/04/21 07:23:41;;;;;;;9.90;7.27;;;6.50;74.80;;;;;;4954565;28;20427;-54
2022/04/21 07:26:07;;;;;;;7.70;6.90;;;6.60;74.50;;;;;;4971845;28;20189;-54
2022/04/21 07:28:33;;;;;;;8.07;6.70;;;6.70;74.10;;;;;;4955560;28;20437;-54
2022/04/21 07:30:59;;;;;;;10.13;7.80;;;6.80;72.90;;;;;;4956386;28;20243;-54
2022/04/21 07:33:25;;;;;;;8.53;7.13;;;7.10;72.00;;;;;;4974086;28;20192;-55
2022/04/21 07:35:50;;;;;;;8.07;7.20;;;7.30;70.90;;;;;;4975101;28;20484;-55
2022/04/21 07:38:16;;;;;;;7.93;6.90;;;7.30;71.50;;;;;;4974824;28;20184;-54
2022/04/21 07:40:42;;;;;;;17.53;8.57;;;7.50;71.90;;;;;;4974907;28;20234;-54
2022/04/21 07:43:08;;;;;;;10.93;8.03;;;7.50;69.60;;;;;;4974922;28;20286;-57
2022/04/21 07:45:38;;;;;;;10.23;7.43;;;7.60;70.30;;;;;;4974854;28;20188;-56
2022/04/21 07:48:04;;;;;;;8.87;6.70;;;7.70;71.40;;;;;;4987859;28;20444;-55
2022/04/21 07:50:30;;;;;;;7.30;6.60;;;7.80;71.40;;;;;;4957295;28;20682;-55
2022/04/21 07:53:14;;;;;;;7.87;7.13;;;7.80;71.40;;;;;;4978439;28;20450;-55
2022/04/21 07:55:45;;;;;;;8.10;6.70;;;8.00;71.10;;;;;;4978623;28;20194;-57
2022/04/21 07:58:11;;;;;;;7.63;6.47;;;8.00;69.50;;;;;;4992403;28;20476;-56
2022/04/21 08:00:38;;;;;;;9.10;6.90;;;8.10;68.70;;;;;;4991947;28;20414;-57
2022/04/21 08:03:05;;;;;;;8.17;7.27;;;8.30;69.40;;;;;;4972995;28;20437;-55
2022/04/21 08:05:31;;;;;;;9.43;7.00;;;8.30;69.00;;;;;;4956824;28;20434;-55
2022/04/21 08:07:58;;;;;;;8.03;6.90;;;8.40;69.30;;;;;;4972755;28;20435;-56
2022/04/21 08:10:27;;;;;;;7.73;7.00;;;8.50;70.30;;;;;;4963838;28;20473;-57
2022/04/21 08:12:54;;;;;;;6.53;5.83;;;8.60;69.00;;;;;;5001808;28;20426;-55
2022/04/21 08:15:28;;;;;;;7.03;6.33;;;8.80;67.90;;;;;;4971401;28;20550;-55
2022/04/21 08:18:02;;;;;;;9.23;5.57;;;8.90;67.10;;;;;;4975804;28;20420;-54
2022/04/21 08:20:30;;;;;;;7.47;6.30;;;9.00;65.60;;;;;;4991667;28;20511;-56
2022/04/21 08:22:55;;;;;;;6.60;5.93;;;9.00;64.90;;;;;;4976558;28;20414;-55
2022/04/21 08:33:35;;;;;;;7.07;5.87;;;9.30;65.00;;;;;;5012395;28;20424;-57
2022/04/21 08:36:01;;;;;;;6.73;6.00;;;9.50;65.40;;;;;;5011296;28;20421;-55
2022/04/21 08:38:28;;;;;;;6.30;5.70;;;9.70;64.80;;;;;;4993693;28;20234;-56
2022/04/21 08:40:56;;;;;;;7.60;6.50;;;9.80;61.30;;;;;;4967598;28;20433;-57
2022/04/21 08:43:23;;;;;;;12.23;7.07;;;9.80;62.30;;;;;;4979979;28;20517;-57
2022/04/21 08:45:50;;;;;;;6.30;5.23;;;9.90;61.60;;;;;;4957964;28;20200;-57
2022/04/21 08:48:19;;;;;;;6.27;5.70;;;10.00;61.60;;;;;;4960102;28;20419;-57
2022/04/21 08:50:45;;;;;;;5.93;5.23;;;10.10;60.60;;;;;;4975752;28;20205;-57
2022/04/21 08:53:14;;;;;;;7.17;6.47;;;10.10;60.40;;;;;;4967089;28;20453;-56
2022/04/21 08:55:40;;;;;;;6.27;5.67;;;10.10;61.50;;;;;;4995159;28;20413;-56
2022/04/21 08:58:06;;;;;;;7.33;5.53;;;10.30;60.20;;;;;;4972649;28;20426;-57
2022/04/21 09:00:32;;;;;;;6.67;5.93;;;10.30;60.90;;;;;;4975617;28;20189;-57
2022/04/21 09:02:59;;;;;;;6.53;5.20;;;10.30;59.90;;;;;;4958661;28;20181;-57
2022/04/21 09:05:29;;;;;;;6.33;5.10;;;10.40;60.30;;;;;;4959551;28;20239;-56
2022/04/21 09:07:57;;;;;;;6.00;5.50;;;10.60;60.40;;;;;;4975884;28;20216;-57
2022/04/21 09:10:24;;;;;;;8.40;5.50;;;10.80;58.00;;;;;;4991568;28;20223;-54
2022/04/21 09:12:59;;;;;;;6.10;5.50;;;10.90;58.00;;;;;;4990398;28;20185;-57
2022/04/21 09:15:30;;;;;;;7.63;5.97;;;10.90;59.00;;;;;;4995650;28;20236;-57
2022/04/21 09:18:01;;;;;;;7.60;6.67;;;11.00;59.30;;;;;;4974807;28;20223;-57
2022/04/21 09:20:29;;;;;;;6.50;5.90;;;11.10;59.00;;;;;;4981287;28;20208;-54
2022/04/21 09:23:00;;;;;;;7.40;6.73;;;11.30;60.30;;;;;;4978639;28;20216;-55
2022/04/21 09:25:30;;;;;;;7.50;6.30;;;11.30;60.50;;;;;;4986852;28;20260;-57
2022/04/21 09:27:57;;;;;;;7.97;7.27;;;11.40;60.80;;;;;;4974474;28;20228;-54
2022/04/21 09:30:23;;;;;;;7.80;7.07;;;11.60;59.30;;;;;;4958389;28;20225;-54
2022/04/21 09:32:57;;;;;;;8.13;7.33;;;11.80;58.70;;;;;;4959018;28;20229;-54
2022/04/21 09:35:27;;;;;;;7.57;6.87;;;11.80;57.40;;;;;;4972463;28;20242;-53
2022/04/21 09:37:55;;;;;;;7.10;6.30;;;11.80;58.60;;;;;;4977390;28;20204;-54
2022/04/21 09:40:26;;;;;;;6.60;5.93;;;11.90;58.20;;;;;;4988324;28;20220;-55
2022/04/21 09:42:56;;;;;;;9.53;7.23;;;12.00;57.70;;;;;;4959589;28;20291;-54
2022/04/21 09:48:28;;;;;;;7.60;6.90;;;12.10;58.50;;;;;;4989030;28;20176;-52
2022/04/21 09:51:05;;;;;;;8.20;7.37;;;12.20;57.20;;;;;;4974083;28;20220;-55
2022/04/21 09:53:44;;;;;;;7.67;6.97;;;12.30;58.20;;;;;;4988161;28;20200;-53
2022/04/21 09:56:10;;;;;;;7.57;6.83;;;12.30;57.20;;;;;;4973587;28;20208;-55
2022/04/21 09:58:39;;;;;;;8.40;6.30;;;12.30;57.50;;;;;;4958600;28;20209;-54
2022/04/21 10:01:06;;;;;;;7.67;6.63;;;12.50;57.50;;;;;;4992071;28;20295;-54
2022/04/21 10:03:33;;;;;;;7.70;7.00;;;12.50;58.90;;;;;;4977591;28;20199;-55
2022/04/21 10:06:00;;;;;;;7.87;6.77;;;12.60;57.30;;;;;;4977505;28;20220;-54
2022/04/21 10:08:25;;;;;;;7.83;7.03;;;12.60;57.30;;;;;;4993237;28;20192;-54
2022/04/21 10:10:53;;;;;;;8.47;6.90;;;12.80;59.00;;;;;;4958697;28;20221;-54
2022/04/21 10:13:19;;;;;;;7.50;6.80;;;12.80;58.00;;;;;;5003492;28;20191;-54
2022/04/21 10:15:45;;;;;;;8.23;6.93;;;13.00;56.10;;;;;;4997111;28;20229;-55
2022/04/21 10:18:18;;;;;;;8.70;7.13;;;13.20;55.80;;;;;;5005827;28;20271;-55
2022/04/21 10:20:45;;;;;;;7.37;6.53;;;13.30;56.50;;;;;;4976470;28;20235;-53
2022/04/21 10:23:22;;;;;;;7.47;6.77;;;13.50;55.60;;;;;;4992524;28;20184;-54
2022/04/21 10:26:01;;;;;;;8.07;7.27;;;13.60;54.80;;;;;;4991842;28;20314;-54
2022/04/21 10:28:41;;;;;;;6.67;6.00;;;13.80;52.40;;;;;;4988250;28;20227;-55
2022/04/21 10:31:30;;;;;;;6.67;6.07;;;13.60;52.00;;;;;;4975209;28;20224;-55
2022/04/21 10:33:56;;;;;;;6.00;5.40;;;13.70;52.70;;;;;;4992082;28;20188;-55
2022/04/21 10:36:42;;;;;;;6.00;4.60;;;13.70;52.00;;;;;;4993483;28;20184;-54
2022/04/21 10:39:19;;;;;;;6.10;5.50;;;13.80;52.30;;;;;;4976033;28;20188;-55
2022/04/21 10:41:45;;;;;;;6.83;5.93;;;13.80;50.30;;;;;;4993043;28;20180;-54
2022/04/21 10:44:15;;;;;;;6.03;5.43;;;13.80;49.60;;;;;;4992113;28;20177;-55
2022/04/21 10:46:41;;;;;;;6.37;5.77;;;13.80;51.30;;;;;;4976441;28;20192;-55
2022/04/21 10:49:09;;;;;;;6.20;5.07;;;13.80;51.70;;;;;;4983804;28;20185;-54
2022/04/21 10:57:17;;;;;;;4.73;4.30;;;14.00;51.50;;;;;;4974981;28;20192;-54
2022/04/21 11:00:09;;;;;;;5.17;4.10;;;14.10;50.70;;;;;;4973788;28;20212;-55
2022/04/21 11:02:43;;;;;;;4.63;4.23;;;14.20;50.60;;;;;;4973497;28;20200;-55
2022/04/21 11:05:33;;;;;;;5.67;4.60;;;14.30;50.00;;;;;;4972167;28;20200;-53
2022/04/21 11:08:13;;;;;;;4.37;3.97;;;14.40;50.70;;;;;;4957579;28;20181;-55
2022/04/21 11:10:38;;;;;;;6.13;5.10;;;14.60;49.80;;;;;;4965617;28;20231;-55
2022/04/21 11:13:50;;;;;;;5.83;5.23;;;14.80;48.90;;;;;;4999427;28;20212;-53
2022/04/21 11:16:42;;;;;;;5.03;4.63;;;15.00;48.30;;;;;;4978021;28;20196;-53
2022/04/21 11:19:37;;;;;;;4.20;3.83;;;15.00;45.20;;;;;;4972369;28;20196;-55
2022/04/21 11:22:06;;;;;;;5.00;4.50;;;15.00;45.30;;;;;;4978916;28;20203;-51
2022/04/21 11:24:59;;;;;;;6.17;4.70;;;15.20;44.70;;;;;;4991050;28;20335;-54
2022/04/21 11:27:26;;;;;;;6.20;3.97;;;15.10;44.30;;;;;;5000563;28;20232;-55
2022/04/21 11:29:52;;;;;;;7.03;4.90;;;15.10;45.40;;;;;;4993333;28;20227;-54
2022/04/21 11:32:18;;;;;;;5.47;4.83;;;15.20;45.40;;;;;;4967519;28;20200;-55
2022/04/21 11:35:02;;;;;;;5.73;5.10;;;15.30;45.40;;;;;;4976896;28;20208;-55
2022/04/21 11:37:50;;;;;;;6.50;5.23;;;15.30;45.90;;;;;;4979095;28;20188;-53
2022/04/21 11:40:19;;;;;;;6.83;6.03;;;15.50;43.90;;;;;;4989986;28;20190;-55
2022/04/21 11:42:47;;;;;;;6.97;5.50;;;15.70;44.00;;;;;;4990139;28;20184;-55
2022/04/21 11:45:21;;;;;;;6.13;5.43;;;15.70;45.40;;;;;;4963286;28;20244;-54
2022/04/21 11:47:47;;;;;;;6.00;5.37;;;15.60;46.20;;;;;;5003870;28;20265;-55
2022/04/21 11:50:24;;;;;;;6.60;6.00;;;15.80;45.50;;;;;;4957916;28;20217;-55
2022/04/21 11:52:52;;;;;;;7.43;6.07;;;16.00;44.20;;;;;;4977739;28;20260;-55
2022/04/21 11:55:20;;;;;;;6.70;6.10;;;16.30;45.80;;;;;;5000916;28;20184;-55
2022/04/21 11:57:45;;;;;;;6.27;5.67;;;16.60;43.80;;;;;;4977276;28;20219;-55
2022/04/21 12:00:15;;;;;;;6.37;5.73;;;16.70;42.30;;;;;;4977479;28;20188;-54
2022/04/21 12:08:12;;;;;;;5.57;5.07;;;17.10;41.40;;;;;;4993772;28;20199;-53
2022/04/21 12:10:38;;;;;;;6.00;4.77;;;17.30;41.30;;;;;;4993229;28;20299;-54
2022/04/21 12:13:04;;;;;;;5.63;5.20;;;17.60;42.70;;;;;;4983950;28;20189;-54
2022/04/21 12:15:36;;;;;;;7.23;6.00;;;18.10;42.80;;;;;;4977498;28;20181;-54
2022/04/21 12:18:03;;;;;;;9.57;5.93;;;18.40;40.80;;;;;;4973506;28;20281;-52
2022/04/21 12:20:29;;;;;;;7.33;5.80;;;18.70;39.50;;;;;;4976794;28;20185;-55
2022/04/21 12:22:56;;;;;;;5.33;4.83;;;18.70;40.60;;;;;;4992761;28;20196;-54
2022/04/21 12:25:32;;;;;;;5.93;5.43;;;18.80;39.40;;;;;;4984346;28;20223;-55
2022/04/21 12:28:05;;;;;;;5.97;5.37;;;19.20;38.70;;;;;;4970109;28;20185;-53
2022/04/21 12:30:31;;;;;;;6.03;5.43;;;19.20;38.70;;;;;;4985167;28;20216;-56
2022/04/21 12:32:57;;;;;;;9.50;6.03;;;19.50;35.60;;;;;;4971733;28;20185;-55
2022/04/21 12:35:46;;;;;;;7.70;5.73;;;19.50;35.70;;;;;;4987110;28;20176;-55
2022/04/21 12:41:00;;;;;;;5.50;5.00;;;20.30;37.60;;;;;;4991817;28;20188;-55
2022/04/21 12:43:28;;;;;;;5.23;4.83;;;20.80;34.70;;;;;;4975250;28;20192;-55
2022/04/21 12:45:55;;;;;;;4.63;4.23;;;21.30;36.30;;;;;;4988980;28;20196;-54
2022/04/21 12:48:25;;;;;;;4.33;3.93;;;21.40;34.30;;;;;;4991244;28;20272;-55
2022/04/21 12:50:52;;;;;;;5.03;4.13;;;21.70;34.80;;;;;;4985168;28;20481;-54
2022/04/21 12:53:36;;;;;;;4.33;3.90;;;21.90;35.30;;;;;;4976750;28;20195;-55
2022/04/21 12:56:09;;;;;;;5.27;3.90;;;22.50;32.60;;;;;;4976454;28;20195;-55
2022/04/21 12:58:35;;;;;;;4.90;4.40;;;22.60;31.80;;;;;;4978718;28;20279;-56
2022/04/21 13:01:01;;;;;;;4.33;4.03;;;22.30;31.30;;;;;;4980254;28;20638;-55
2022/04/21 13:03:27;;;;;;;5.50;5.00;;;22.60;31.70;;;;;;4980008;28;20224;-55
2022/04/21 13:05:55;;;;;;;4.70;4.30;;;22.50;31.20;;;;;;4996250;28;20259;-55
2022/04/21 13:08:26;;;;;;;5.93;4.37;;;22.80;31.40;;;;;;4996214;28;20240;-55
2022/04/21 13:10:54;;;;;;;4.57;4.17;;;22.80;31.30;;;;;;5011115;28;20215;-54
2022/04/21 13:13:20;;;;;;;5.50;4.67;;;22.90;29.90;;;;;;4977829;28;20695;-55
2022/04/21 13:15:46;;;;;;;5.33;4.70;;;23.00;31.30;;;;;;4988570;28;20185;-55
2022/04/21 13:18:13;;;;;;;4.97;4.57;;;23.50;30.40;;;;;;4988054;28;20193;-55
2022/04/21 13:23:25;;;;;;;4.53;4.13;;;24.20;28.50;;;;;;4994998;28;20187;-56
2022/04/21 13:25:54;;;;;;;6.23;4.73;;;24.30;29.20;;;;;;4984381;28;20255;-56
2022/04/21 13:28:20;;;;;;;7.33;4.57;;;25.50;28.40;;;;;;4991026;28;20191;-53
2022/04/21 13:30:46;;;;;;;5.07;4.67;;;25.80;28.10;;;;;;4994959;28;20212;-54
2022/04/21 13:33:24;;;;;;;4.03;3.63;;;26.00;26.80;;;;;;4996887;28;20282;-57
2022/04/21 13:35:54;;;;;;;4.30;2.77;;;27.80;26.90;;;;;;5014973;28;20184;-55
2022/04/21 13:38:21;;;;;;;4.17;3.83;;;29.50;24.40;;;;;;5004743;28;20196;-56
2022/04/21 13:40:47;;;;;;;3.60;3.30;;;30.10;22.70;;;;;;4979113;28;20262;-56
2022/04/21 13:43:12;;;;;;;6.03;4.17;;;30.80;23.30;;;;;;4979485;28;20208;-56
2022/04/21 13:45:39;;;;;;;4.97;3.90;;;31.60;21.50;;;;;;4977622;28;20184;-56
2022/04/21 13:48:06;;;;;;;4.87;3.87;;;31.00;21.80;;;;;;4994184;28;20276;-56
2022/04/21 13:50:32;;;;;;;3.70;3.30;;;30.40;23.30;;;;;;4994489;28;20239;-56
2022/04/21 13:52:58;;;;;;;5.27;4.10;;;30.80;22.80;;;;;;4993576;28;20204;-56
2022/04/21 13:55:25;;;;;;;4.77;4.37;;;31.30;20.90;;;;;;4962177;28;20176;-55
2022/04/21 13:57:50;;;;;;;5.17;4.77;;;30.60;20.90;;;;;;4976289;28;20196;-56